Terminal Aerodrome Forecast
Issued by NWS

Home | Current Version | Previous Version | Text Only | Print | Product List | Glossary On
Versions: 1 2 3 4 5 6 7 8 9 10 11 12 13 14
142
FTUS42 KTBW 030520
TAFPGD
TAF
KPGD 030520Z 0306/0406 16003KT P6SM BKN025
      TEMPO 0306/0309 5SM BR BKN015
     FM030900 VRB03KT 4SM BR BKN015
     FM031400 19006KT P6SM BKN030
     FM031700 23010G15KT P6SM SCT040 BKN200
     FM040000 26006KT P6SM SCT150 BKN200=

USA.gov is the U.S. government's official web portal to all federal, state and local government web resources and services.